• Join FlightAware (Why Join?)
  • Login
  • US Flag 
03:56AM EDT


 

Airport Tracker/Info


-or-


 

Live Flight TrackerFlight Track Log ✈ VH-WSF ✈ 03-Jul-2014 ✈ YLGB - YBRM / BME

Flight Track Log - Related Links

Times and Time Zones

All times are in EDT time to prevent confusion due to time zone crossing. See the VH-WSF flight status page for this flight to view local times or setup timezone preferences in your user account.

Time Position Orientation Groundspeed Altitude Reporting Facility
EDT Latitude Longitude Course Direction KTS MPH feet Rate Location/Type
04:02AM -18.5913 121.8619 29° Northeast 100  Level Aus ATC (Calculated)
04:04AM -18.5545 121.8832 29° Northeast  Level FlightAware Approximate
04:05AM -18.5283 121.8985 29° Northeast  Level FlightAware Approximate
04:05AM -18.5111 121.9078 32° Northeast 100  Level Aus ATC (Calculated)
04:06AM -18.5021 121.9137 29° Northeast  Level FlightAware Approximate
04:07AM -18.4758 121.9290 29° Northeast  Level FlightAware Approximate
04:08AM -18.4565 121.9396 29° Northeast  Level FlightAware Approximate
04:09AM -18.4303 121.9548 29° Northeast  Level FlightAware Approximate
04:10AM -18.4040 121.9701 29° Northeast  Level FlightAware Approximate
04:11AM -18.3778 121.9853 29° Northeast  Level FlightAware Approximate
04:12AM -18.3516 122.0005 29° Northeast  Level FlightAware Approximate
04:12AM -18.1602 122.1080 208° Southwest 100  Level Aus ATC (Calculated)
04:13AM -18.3253 122.0158 29° Northeast  Level FlightAware Approximate
04:14AM -18.1294 122.1264 30° Northeast  Level FlightAware Approximate
04:15AM -18.1033 122.1419 30° Northeast  Level FlightAware Approximate
04:16AM -18.0773 122.1574 30° Northeast  Level FlightAware Approximate
04:16AM -17.9998 122.2035 25° Northeast 400  Level Aus ATC (Calculated)
04:17AM -17.9747 122.2156 39° Northeast 100 -840 Descending Aus ATC (Calculated)
04:18AM -17.9637 122.2250 29° Northeast  Level FlightAware Approximate
04:19AM -17.9447 122.2317 33° Northeast  Level Estimated
04:20AM -17.9447 122.2317 115° Southeast  Level Estimated
04:21AM -17.9447 122.2317 115° Southeast  Level Estimated
04:22AM -17.9447 122.2317 115° Southeast  Level Estimated
04:23AM -17.9447 122.2317 115° Southeast  Level Estimated
04:24AM -17.9447 122.2317 115° Southeast  Level Estimated
04:25AM -17.9447 122.2317 115° Southeast  Level Estimated
04:26AM -17.9463 122.2353 29° Northeast  Level FlightAware Approximate
04:27AM -17.9447 122.2317 295° West  Level Estimated
04:28AM -17.9463 122.2353 29° Northeast  Level FlightAware Approximate
04:29AM -17.9447 122.2317 295° West  Level Estimated
04:30AM -17.9463 122.2353 29° Northeast  Level FlightAware Approximate
04:31AM -17.9447 122.2317 295° West  Level Estimated
04:32AM -17.9463 122.2353 29° Northeast  Level FlightAware Approximate
04:33AM -17.9447 122.2317 295° West  Level Estimated
04:34AM -17.9463 122.2353 29° Northeast  Level FlightAware Approximate
04:35AM -17.9447 122.2317 295° West  Level Estimated
04:36AM -17.9463 122.2353 29° Northeast  Level FlightAware Approximate
04:37AM -17.9447 122.2317 295° West  Level Estimated
04:38AM -17.9463 122.2353 29° Northeast  Level FlightAware Approximate